Time;durP1;ratioP1;P1;durP2;ratioP2;P2;SDS_P1;SDS_P2;PMS_P1;PMS_P2;Temp;Humidity;BMP_temperature;BMP_pressure;BME280_temperature;BME280_humidity;BME280_pressure;Samples;Min_cycle;Max_cycle;Signal;HPM_P1;HPM_P2
2023/05/13 00:00:06;;;;;;;25.47;23.47;;;10.30;81.20;;;;;;5014058;28;20173;-85
2023/05/13 00:02:31;;;;;;;22.63;20.87;;;10.30;81.10;;;;;;5012783;28;20184;-86
2023/05/13 00:04:57;;;;;;;23.33;21.60;;;10.30;81.00;;;;;;5012902;28;20177;-86
2023/05/13 00:07:22;;;;;;;24.80;22.87;;;10.30;80.80;;;;;;5012978;28;20655;-86
2023/05/13 00:09:48;;;;;;;25.00;23.00;;;10.30;80.80;;;;;;5014270;28;20176;-86
2023/05/13 00:12:13;;;;;;;25.30;23.00;;;10.30;80.80;;;;;;5014170;28;20197;-87
2023/05/13 00:14:39;;;;;;;23.33;21.53;;;10.30;80.80;;;;;;5012989;28;20557;-86
2023/05/13 00:17:05;;;;;;;23.37;21.47;;;10.30;80.90;;;;;;5012782;28;20201;-86
2023/05/13 00:19:31;;;;;;;23.77;21.87;;;10.30;80.90;;;;;;5013880;28;20173;-86
2023/05/13 00:21:56;;;;;;;23.10;21.00;;;10.30;80.90;;;;;;5013714;28;20200;-86
2023/05/13 00:24:22;;;;;;;23.17;21.20;;;10.30;80.90;;;;;;5012627;28;20178;-86
2023/05/13 00:26:47;;;;;;;24.23;20.47;;;10.30;80.80;;;;;;5012485;28;20266;-86
2023/05/13 00:29:13;;;;;;;22.93;20.93;;;10.30;80.70;;;;;;5012441;28;20323;-86
2023/05/13 00:31:38;;;;;;;23.07;21.17;;;10.30;80.60;;;;;;5013864;28;20200;-86
2023/05/13 00:34:04;;;;;;;22.93;20.77;;;10.30;80.50;;;;;;5013819;28;20192;-85
2023/05/13 00:36:30;;;;;;;23.23;21.53;;;10.30;80.40;;;;;;5012353;28;20209;-86
2023/05/13 00:38:56;;;;;;;28.97;23.07;;;10.30;80.30;;;;;;5012233;28;20181;-87
2023/05/13 00:41:21;;;;;;;24.93;23.00;;;10.30;80.10;;;;;;5012572;28;20211;-86
2023/05/13 00:43:47;;;;;;;25.00;22.83;;;10.30;79.90;;;;;;5013870;28;20281;-86
2023/05/13 00:46:14;;;;;;;24.03;21.53;;;10.20;79.90;;;;;;5012434;28;20181;-86
2023/05/13 00:48:39;;;;;;;25.27;22.83;;;10.20;80.00;;;;;;5012158;28;20193;-85
2023/05/13 00:51:05;;;;;;;25.17;22.77;;;10.10;80.00;;;;;;5012529;28;20231;-86
2023/05/13 00:53:32;;;;;;;24.80;22.80;;;10.10;80.10;;;;;;5013910;28;20691;-86
2023/05/13 00:55:58;;;;;;;26.80;23.30;;;10.10;80.10;;;;;;5012351;28;20299;-86
2023/05/13 00:58:23;;;;;;;24.57;22.67;;;10.10;80.10;;;;;;5013513;28;20216;-86
2023/05/13 01:01:16;;;;;;;24.50;22.60;;;10.10;80.10;;;;;;5013395;28;20224;-86
2023/05/13 01:03:59;;;;;;;25.00;22.60;;;10.00;80.00;;;;;;5012192;28;20551;-86
2023/05/13 01:07:03;;;;;;;24.40;22.27;;;10.00;80.10;;;;;;5012140;28;20177;-86
2023/05/13 01:09:38;;;;;;;24.87;22.50;;;10.00;80.00;;;;;;5012791;28;20209;-85
2023/05/13 01:12:09;;;;;;;23.47;21.77;;;9.90;80.20;;;;;;5011987;28;20210;-85
2023/05/13 01:14:48;;;;;;;23.87;21.77;;;10.00;80.10;;;;;;5013387;28;20220;-86
2023/05/13 01:17:23;;;;;;;23.97;21.87;;;9.90;80.10;;;;;;5013634;28;20659;-86
2023/05/13 01:19:53;;;;;;;25.40;22.87;;;9.90;80.10;;;;;;5012266;28;20678;-86
2023/05/13 01:22:18;;;;;;;14.37;13.07;;;9.80;80.10;;;;;;5013367;28;20269;-85
2023/05/13 01:24:44;;;;;;;14.53;13.10;;;9.80;80.10;;;;;;5012083;28;20621;-85
2023/05/13 01:27:10;;;;;;;18.53;13.00;;;9.80;80.10;;;;;;5013515;28;20169;-85
2023/05/13 01:29:36;;;;;;;15.83;14.27;;;9.80;80.00;;;;;;5012111;28;20181;-85
2023/05/13 01:32:03;;;;;;;15.00;13.60;;;9.80;79.80;;;;;;5013118;28;20217;-86
2023/05/13 01:34:29;;;;;;;14.70;12.90;;;9.70;79.70;;;;;;5011989;28;20212;-85
2023/05/13 01:36:56;;;;;;;13.77;12.37;;;9.70;79.80;;;;;;5013384;28;20208;-86
2023/05/13 01:39:23;;;;;;;16.07;14.23;;;9.70;79.70;;;;;;5011974;28;20177;-85
2023/05/13 01:41:48;;;;;;;19.93;14.50;;;9.60;79.70;;;;;;5011955;28;20216;-86
2023/05/13 01:44:14;;;;;;;16.53;13.37;;;9.70;79.80;;;;;;5012810;28;20182;-86
2023/05/13 01:46:42;;;;;;;14.93;13.43;;;9.60;80.00;;;;;;5013422;28;20256;-85
2023/05/13 01:49:09;;;;;;;14.53;13.10;;;9.60;80.10;;;;;;5013127;28;20197;-86
2023/05/13 01:51:35;;;;;;;14.20;12.77;;;9.50;80.20;;;;;;5016264;28;20197;-86
2023/05/13 01:54:01;;;;;;;14.27;13.00;;;9.50;80.30;;;;;;5015434;28;20173;-86
2023/05/13 01:56:26;;;;;;;14.83;13.43;;;9.50;80.30;;;;;;5015142;28;20295;-86
2023/05/13 01:58:52;;;;;;;24.17;21.73;;;9.40;80.40;;;;;;5016519;28;20328;-86
2023/05/13 02:01:17;;;;;;;24.33;22.50;;;9.40;80.40;;;;;;5015529;28;20205;-86
2023/05/13 02:03:43;;;;;;;24.57;22.30;;;9.40;80.50;;;;;;5015305;28;20210;-85
2023/05/13 02:06:09;;;;;;;24.67;22.30;;;9.30;80.50;;;;;;5015006;28;20601;-85
2023/05/13 02:08:35;;;;;;;25.30;23.10;;;9.30;80.50;;;;;;5016290;28;20178;-86
2023/05/13 02:11:00;;;;;;;24.47;22.57;;;9.30;80.40;;;;;;5016190;28;20194;-85
2023/05/13 02:13:26;;;;;;;22.97;20.97;;;9.30;80.50;;;;;;5014865;28;20189;-85
2023/05/13 02:15:52;;;;;;;24.30;22.20;;;9.20;80.60;;;;;;5014684;28;20205;-86
2023/05/13 02:18:18;;;;;;;22.30;20.43;;;9.20;80.70;;;;;;5014636;28;20181;-86
2023/05/13 02:20:44;;;;;;;24.07;22.17;;;9.20;80.80;;;;;;5015987;28;20197;-86
2023/05/13 02:23:10;;;;;;;25.40;23.10;;;9.20;80.90;;;;;;5014848;28;20177;-85
2023/05/13 02:25:36;;;;;;;23.43;21.27;;;9.10;81.00;;;;;;5016107;28;20182;-85
2023/05/13 02:28:01;;;;;;;24.30;21.93;;;9.10;81.20;;;;;;5014774;28;20185;-85
2023/05/13 02:30:27;;;;;;;22.47;20.50;;;9.00;81.30;;;;;;5015650;28;20208;-85
2023/05/13 02:32:53;;;;;;;22.47;20.67;;;9.00;81.50;;;;;;5015924;28;20729;-86
2023/05/13 02:35:21;;;;;;;22.60;20.80;;;9.00;81.70;;;;;;5014283;28;20594;-86
2023/05/13 02:37:47;;;;;;;22.23;20.33;;;9.00;81.80;;;;;;5014387;28;20659;-86
2023/05/13 02:40:12;;;;;;;24.00;21.73;;;8.90;81.90;;;;;;5014153;28;20184;-86
2023/05/13 02:42:38;;;;;;;24.23;21.90;;;8.90;82.00;;;;;;5014524;28;20174;-86
2023/05/13 02:45:04;;;;;;;22.50;20.67;;;8.90;82.00;;;;;;5015614;28;20643;-85
2023/05/13 02:47:30;;;;;;;22.43;20.43;;;8.80;82.10;;;;;;5014299;28;20518;-85
2023/05/13 02:49:56;;;;;;;23.30;21.40;;;8.80;82.20;;;;;;5014049;28;20200;-85
2023/05/13 02:52:21;;;;;;;24.07;21.83;;;8.70;82.30;;;;;;5014048;28;20204;-85
2023/05/13 02:54:47;;;;;;;22.83;20.70;;;8.60;82.50;;;;;;5015438;28;20656;-85
2023/05/13 02:57:12;;;;;;;22.60;20.43;;;8.50;82.80;;;;;;5013959;28;20208;-85
2023/05/13 02:59:38;;;;;;;23.43;21.23;;;8.50;83.00;;;;;;5015397;28;20249;-85
2023/05/13 03:02:04;;;;;;;22.70;20.77;;;8.40;83.10;;;;;;5015096;28;20271;-86
2023/05/13 03:04:29;;;;;;;23.57;21.57;;;8.40;83.30;;;;;;5015323;28;20174;-85
2023/05/13 03:06:55;;;;;;;23.27;21.07;;;8.40;83.40;;;;;;5015043;28;20678;-85
2023/05/13 03:09:20;;;;;;;23.17;21.30;;;8.30;83.50;;;;;;5014920;28;20169;-85
2023/05/13 03:11:46;;;;;;;24.17;22.17;;;8.30;83.60;;;;;;5013781;28;20255;-85
2023/05/13 03:14:11;;;;;;;24.03;21.77;;;8.30;83.80;;;;;;5014915;28;20209;-86
2023/05/13 03:16:37;;;;;;;24.23;21.83;;;8.30;84.00;;;;;;5014687;28;20197;-86
2023/05/13 03:19:02;;;;;;;23.90;21.90;;;8.20;84.10;;;;;;5013547;28;20173;-85
2023/05/13 03:21:28;;;;;;;24.83;22.60;;;8.30;84.20;;;;;;5013446;28;20185;-85
2023/05/13 03:23:53;;;;;;;24.43;21.90;;;8.30;84.20;;;;;;5013420;28;20546;-85
2023/05/13 03:26:20;;;;;;;23.83;21.53;;;8.30;84.30;;;;;;5013455;28;20189;-85
2023/05/13 03:28:45;;;;;;;23.87;21.67;;;8.20;84.30;;;;;;5013520;28;20216;-85
2023/05/13 03:31:11;;;;;;;23.43;21.07;;;8.20;84.30;;;;;;5014703;28;20201;-85
2023/05/13 03:33:37;;;;;;;24.77;22.47;;;8.20;84.40;;;;;;5013302;28;20184;-85
2023/05/13 03:36:03;;;;;;;23.00;21.10;;;8.20;84.60;;;;;;5014470;28;20201;-85
2023/05/13 03:38:29;;;;;;;25.97;21.83;;;8.20;84.60;;;;;;5013078;28;20320;-85
2023/05/13 03:40:54;;;;;;;23.23;21.23;;;8.20;84.40;;;;;;5014245;28;20310;-85
2023/05/13 03:43:20;;;;;;;20.47;18.37;;;8.20;84.20;;;;;;5013087;28;20597;-85
2023/05/13 03:45:47;;;;;;;23.37;19.20;;;8.30;84.20;;;;;;5013059;28;20185;-85
2023/05/13 03:48:13;;;;;;;20.33;18.30;;;8.30;84.10;;;;;;5013076;28;20686;-85
2023/05/13 03:50:39;;;;;;;23.00;20.23;;;8.30;84.00;;;;;;5012878;28;20340;-85
2023/05/13 03:53:05;;;;;;;21.33;19.00;;;8.30;83.90;;;;;;5012992;28;20667;-85
2023/05/13 03:55:30;;;;;;;23.87;13.30;;;8.30;84.00;;;;;;5012922;28;20236;-85
2023/05/13 03:57:56;;;;;;;15.33;13.50;;;8.30;84.10;;;;;;5012891;28;20235;-85
2023/05/13 04:00:21;;;;;;;17.37;12.70;;;8.20;84.10;;;;;;5013922;28;20185;-85
2023/05/13 04:02:47;;;;;;;16.40;13.47;;;8.10;84.20;;;;;;5012888;28;20189;-85
2023/05/13 04:05:12;;;;;;;20.83;13.80;;;8.00;84.50;;;;;;5012765;28;20628;-85
2023/05/13 04:07:39;;;;;;;14.03;12.53;;;8.00;84.70;;;;;;5012804;28;20181;-85
2023/05/13 04:10:05;;;;;;;17.10;12.87;;;8.00;84.90;;;;;;5012668;28;20177;-84
2023/05/13 04:12:32;;;;;;;16.63;13.93;;;8.00;85.10;;;;;;5011896;28;20188;-85
2023/05/13 04:14:58;;;;;;;14.57;13.27;;;8.00;85.30;;;;;;5012607;28;20185;-85
2023/05/13 04:17:24;;;;;;;25.43;14.40;;;8.10;85.40;;;;;;5012468;28;20205;-85
2023/05/13 04:19:53;;;;;;;14.93;13.47;;;8.20;85.60;;;;;;5012732;28;20552;-86
2023/05/13 04:22:19;;;;;;;17.03;13.70;;;8.30;85.70;;;;;;5013869;28;20599;-85
2023/05/13 04:24:45;;;;;;;15.90;14.23;;;8.50;85.80;;;;;;5013979;28;20660;-85
2023/05/13 04:27:10;;;;;;;15.33;13.90;;;8.60;85.70;;;;;;5012558;28;20197;-85
2023/05/13 04:29:36;;;;;;;21.40;19.43;;;8.60;85.40;;;;;;5012720;28;20188;-86
2023/05/13 04:32:01;;;;;;;22.17;20.27;;;8.70;85.40;;;;;;5013684;28;20336;-85
2023/05/13 04:34:27;;;;;;;21.23;19.20;;;8.80;85.30;;;;;;5013864;28;20177;-85
2023/05/13 04:36:52;;;;;;;20.80;18.77;;;8.90;85.30;;;;;;5012299;28;20240;-85
2023/05/13 04:39:18;;;;;;;21.63;19.53;;;9.00;85.20;;;;;;5012363;28;20177;-85
2023/05/13 04:41:43;;;;;;;22.07;19.87;;;9.20;85.20;;;;;;5012304;28;20300;-86
2023/05/13 04:44:09;;;;;;;22.27;19.90;;;9.30;85.00;;;;;;5012237;28;20223;-85
2023/05/13 04:46:36;;;;;;;25.60;20.87;;;9.40;84.90;;;;;;5012418;28;20228;-85
2023/05/13 04:49:02;;;;;;;26.47;21.80;;;9.50;84.80;;;;;;5012096;28;20204;-86
2023/05/13 04:51:28;;;;;;;21.70;19.67;;;9.50;84.90;;;;;;5012015;28;20200;-86
2023/05/13 04:53:54;;;;;;;22.97;20.57;;;9.60;85.00;;;;;;5013449;28;20201;-85
2023/05/13 04:56:20;;;;;;;23.77;21.37;;;9.70;85.00;;;;;;5012297;28;20291;-86
2023/05/13 04:58:46;;;;;;;22.87;20.80;;;9.70;84.90;;;;;;5012476;28;20655;-86
2023/05/13 05:01:11;;;;;;;22.93;20.63;;;9.70;85.10;;;;;;5012112;28;20197;-86
2023/05/13 05:03:37;;;;;;;23.37;20.73;;;9.80;85.30;;;;;;5012487;28;20169;-86
2023/05/13 05:06:02;;;;;;;28.57;20.80;;;9.80;85.40;;;;;;5012399;28;20181;-85
2023/05/13 05:08:28;;;;;;;23.07;20.97;;;9.90;85.60;;;;;;5013948;28;20213;-86
2023/05/13 05:10:53;;;;;;;23.10;20.57;;;10.00;85.60;;;;;;5013568;28;20733;-86
2023/05/13 05:13:19;;;;;;;22.50;20.37;;;10.00;85.50;;;;;;5012301;28;20220;-86
2023/05/13 05:15:44;;;;;;;22.90;20.73;;;10.00;85.40;;;;;;5012024;28;20240;-86
2023/05/13 05:18:10;;;;;;;23.07;20.80;;;10.20;85.70;;;;;;5012203;28;20272;-86
2023/05/13 05:20:36;;;;;;;21.70;19.90;;;10.20;85.60;;;;;;5013368;28;20312;-86
2023/05/13 05:23:02;;;;;;;23.47;21.13;;;10.30;85.60;;;;;;5013167;28;20234;-85
2023/05/13 05:25:28;;;;;;;23.27;21.07;;;10.30;85.40;;;;;;5015395;28;20204;-85
2023/05/13 05:27:54;;;;;;;23.40;21.20;;;10.40;85.40;;;;;;5015890;28;20227;-86
2023/05/13 05:30:19;;;;;;;22.17;20.00;;;10.50;85.40;;;;;;5016956;28;20220;-86
2023/05/13 05:32:45;;;;;;;24.53;20.93;;;10.60;85.00;;;;;;5015726;28;20677;-86
2023/05/13 05:35:10;;;;;;;26.60;19.43;;;10.70;85.00;;;;;;5016781;28;20200;-86
2023/05/13 05:37:36;;;;;;;23.33;21.03;;;10.80;85.00;;;;;;5015508;28;20228;-86
2023/05/13 05:40:02;;;;;;;23.53;21.33;;;10.80;84.40;;;;;;5015501;28;20586;-85
2023/05/13 05:42:28;;;;;;;22.60;20.23;;;11.00;84.40;;;;;;5015594;28;20268;-86
2023/05/13 05:44:53;;;;;;;23.03;20.90;;;11.10;83.70;;;;;;5015385;28;20213;-86
2023/05/13 05:47:19;;;;;;;24.93;20.27;;;11.20;83.40;;;;;;5015344;28;20272;-86
2023/05/13 05:49:45;;;;;;;22.53;20.20;;;11.30;83.40;;;;;;5015257;28;20231;-86
2023/05/13 05:52:12;;;;;;;24.87;21.37;;;11.40;82.80;;;;;;5015146;28;20683;-86
2023/05/13 05:54:37;;;;;;;23.03;20.60;;;11.50;82.80;;;;;;5016438;28;20173;-86
2023/05/13 05:57:03;;;;;;;23.67;21.17;;;11.60;81.60;;;;;;5016346;28;20243;-86
2023/05/13 05:59:29;;;;;;;18.70;16.87;;;11.70;81.50;;;;;;5015342;28;20209;-86
2023/05/13 06:01:55;;;;;;;18.50;16.67;;;11.80;81.60;;;;;;5014972;28;20224;-86
2023/05/13 06:04:20;;;;;;;24.57;16.53;;;12.00;81.50;;;;;;5015023;28;20265;-86
2023/05/13 06:06:46;;;;;;;18.07;16.33;;;12.00;81.20;;;;;;5014912;28;20212;-86
2023/05/13 06:09:11;;;;;;;19.53;17.17;;;12.20;81.60;;;;;;5015036;28;20596;-86
2023/05/13 06:11:37;;;;;;;17.57;15.73;;;12.30;81.10;;;;;;5014842;28;20197;-86
2023/05/13 06:14:02;;;;;;;18.53;16.47;;;12.50;80.60;;;;;;5016176;28;20269;-86
2023/05/13 06:16:28;;;;;;;18.37;15.57;;;12.50;79.90;;;;;;5016063;28;20209;-86
2023/05/13 06:18:53;;;;;;;18.40;16.27;;;12.70;79.60;;;;;;5016019;28;20546;-86
2023/05/13 06:21:19;;;;;;;16.83;15.17;;;12.80;79.00;;;;;;5014598;28;20208;-86
2023/05/13 06:23:44;;;;;;;22.17;15.90;;;13.00;78.60;;;;;;5016106;28;20659;-86
2023/05/13 06:26:10;;;;;;;17.43;15.63;;;13.10;78.50;;;;;;5014641;28;20181;-86
2023/05/13 06:28:35;;;;;;;16.90;15.40;;;13.20;77.60;;;;;;5014593;28;20185;-84
2023/05/13 06:31:01;;;;;;;20.67;15.90;;;13.20;76.70;;;;;;5015778;28;20200;-85
2023/05/13 06:33:27;;;;;;;17.87;15.83;;;13.30;76.80;;;;;;5014794;28;20260;-85
2023/05/13 06:35:52;;;;;;;17.83;14.73;;;13.40;76.50;;;;;;5014161;28;20303;-84
2023/05/13 06:38:18;;;;;;;22.97;20.30;;;13.50;76.20;;;;;;5016594;28;20212;-87
2023/05/13 06:40:44;;;;;;;22.40;20.13;;;13.70;74.70;;;;;;5015523;28;20224;-86
2023/05/13 06:43:15;;;;;;;21.83;19.80;;;13.80;75.20;;;;;;5016214;28;20173;-86
2023/05/13 06:45:41;;;;;;;21.03;19.13;;;14.00;75.30;;;;;;5018103;28;20153;-86
2023/05/13 06:48:07;;;;;;;21.90;19.93;;;14.10;74.70;;;;;;5016719;28;20186;-87
2023/05/13 06:50:32;;;;;;;20.67;18.57;;;14.10;74.00;;;;;;5017386;28;20213;-87
2023/05/13 06:52:58;;;;;;;20.90;18.90;;;14.30;73.60;;;;;;5018015;28;20185;-87
2023/05/13 06:55:23;;;;;;;23.20;19.17;;;14.30;72.10;;;;;;5015658;28;20644;-86
2023/05/13 06:57:49;;;;;;;21.50;19.47;;;14.50;72.70;;;;;;5018091;28;20181;-86
2023/05/13 07:00:15;;;;;;;21.23;19.37;;;14.50;72.50;;;;;;5015223;28;20184;-86
2023/05/13 07:02:40;;;;;;;21.67;19.48;;;14.70;71.90;;;;;;5015677;28;20712;-86
2023/05/13 07:05:07;;;;;;;21.40;19.47;;;14.70;71.30;;;;;;5015923;28;20181;-87
2023/05/13 07:07:33;;;;;;;21.98;20.00;;;14.80;71.80;;;;;;5017596;28;20162;-86
2023/05/13 07:09:58;;;;;;;21.80;19.75;;;14.90;71.00;;;;;;5017610;28;20184;-86
2023/05/13 07:12:24;;;;;;;22.20;20.35;;;15.10;70.70;;;;;;5015691;28;20200;-86
2023/05/13 07:14:49;;;;;;;21.20;19.10;;;15.20;69.90;;;;;;5015423;28;20173;-87
2023/05/13 07:17:16;;;;;;;21.45;19.40;;;15.30;69.70;;;;;;5015826;28;20209;-87
2023/05/13 07:19:41;;;;;;;22.92;20.73;;;15.30;69.90;;;;;;5016648;28;20173;-86
2023/05/13 07:22:07;;;;;;;22.98;20.85;;;15.40;68.50;;;;;;5015639;28;20227;-87
2023/05/13 07:24:32;;;;;;;18.92;13.80;;;15.50;68.80;;;;;;5017516;28;20169;-86
2023/05/13 07:26:58;;;;;;;15.77;14.25;;;15.70;69.00;;;;;;5015650;28;20177;-87
2023/05/13 07:29:24;;;;;;;16.60;15.30;;;15.70;68.50;;;;;;5016323;28;20790;-87
2023/05/13 07:31:50;;;;;;;14.95;13.75;;;15.70;67.40;;;;;;5015171;28;20204;-87
2023/05/13 07:34:16;;;;;;;19.25;15.35;;;15.90;69.60;;;;;;5017455;28;20265;-87
2023/05/13 07:36:41;;;;;;;17.13;15.60;;;16.00;67.10;;;;;;5017802;28;20229;-88
2023/05/13 07:39:08;;;;;;;17.48;15.70;;;16.10;67.50;;;;;;5015129;28;20196;-87
2023/05/13 07:41:35;;;;;;;17.13;14.65;;;16.20;67.00;;;;;;5017079;28;20535;-88
2023/05/13 07:44:00;;;;;;;16.65;15.45;;;16.30;67.80;;;;;;5016373;28;20240;-87
2023/05/13 07:46:26;;;;;;;19.27;16.98;;;16.30;66.00;;;;;;5017528;28;20546;-88
2023/05/13 07:48:51;;;;;;;19.25;17.58;;;16.40;64.80;;;;;;5014871;28;20225;-86
2023/05/13 07:51:17;;;;;;;18.48;16.65;;;16.50;65.60;;;;;;5016491;28;20617;-87
2023/05/13 07:53:44;;;;;;;19.58;17.63;;;16.50;65.60;;;;;;5014982;28;20185;-87
2023/05/13 07:56:10;;;;;;;18.92;17.17;;;16.60;64.30;;;;;;5014952;28;20719;-87
2023/05/13 07:58:36;;;;;;;18.77;17.27;;;16.70;63.90;;;;;;5014833;28;20185;-87
2023/05/13 08:01:02;;;;;;;24.50;17.55;;;16.80;65.00;;;;;;5014555;28;20212;-87
2023/05/13 08:03:28;;;;;;;25.73;23.23;;;16.90;64.40;;;;;;5016275;28;20176;-87
2023/05/13 08:05:53;;;;;;;24.40;22.15;;;17.00;64.80;;;;;;5014445;28;20177;-87
2023/05/13 08:08:19;;;;;;;24.85;22.92;;;17.20;63.70;;;;;;5016399;28;20643;-86
2023/05/13 08:10:44;;;;;;;29.63;22.83;;;17.30;64.30;;;;;;5014884;28;20201;-87
2023/05/13 08:13:10;;;;;;;23.02;20.85;;;17.40;62.20;;;;;;5014918;28;20267;-86
2023/05/13 08:15:37;;;;;;;22.98;21.35;;;17.40;62.30;;;;;;5014845;28;20209;-87
2023/05/13 08:18:02;;;;;;;23.27;21.35;;;17.50;61.90;;;;;;5015365;28;20169;-87
2023/05/13 08:20:28;;;;;;;24.83;22.60;;;17.70;63.20;;;;;;5014462;28;20193;-87
2023/05/13 08:22:55;;;;;;;23.08;21.38;;;17.80;64.00;;;;;;5016428;28;20663;-86
2023/05/13 08:25:21;;;;;;;24.33;22.33;;;17.90;61.30;;;;;;5015594;28;20173;-87
2023/05/13 08:27:47;;;;;;;23.52;21.23;;;18.10;62.80;;;;;;5014123;28;20181;-87
2023/05/13 08:30:13;;;;;;;22.85;20.63;;;18.20;61.10;;;;;;5014329;28;20196;-87
2023/05/13 08:32:38;;;;;;;18.95;16.05;;;18.30;60.20;;;;;;5014164;28;20231;-87
2023/05/13 08:35:04;;;;;;;17.70;15.90;;;18.30;60.30;;;;;;5014521;28;20181;-87
2023/05/13 08:37:30;;;;;;;16.70;15.30;;;18.30;59.00;;;;;;5016104;28;20626;-87
2023/05/13 08:39:58;;;;;;;16.73;15.10;;;18.50;60.90;;;;;;5015033;28;20239;-87
2023/05/13 08:42:26;;;;;;;16.67;15.20;;;18.60;57.10;;;;;;5016099;28;20185;-87
2023/05/13 08:44:52;;;;;;;17.27;15.77;;;18.70;57.90;;;;;;5014622;28;20208;-86
2023/05/13 08:47:44;;;;;;;16.77;15.25;;;18.80;58.20;;;;;;5014893;28;20201;-86
2023/05/13 08:50:10;;;;;;;16.45;14.98;;;19.00;56.90;;;;;;5014969;28;20193;-87
2023/05/13 08:52:36;;;;;;;19.45;15.13;;;19.10;57.80;;;;;;5014982;28;20185;-87
2023/05/13 08:55:04;;;;;;;18.02;15.15;;;19.10;57.00;;;;;;5014892;28;20232;-88
2023/05/13 08:57:29;;;;;;;16.40;15.10;;;19.20;55.90;;;;;;5015509;28;20201;-86
2023/05/13 08:59:55;;;;;;;15.35;14.10;;;19.30;56.20;;;;;;5017413;28;20714;-88
2023/05/13 09:02:21;;;;;;;16.35;14.75;;;19.30;55.60;;;;;;5019395;28;20671;-86
2023/05/13 09:04:51;;;;;;;15.15;14.05;;;19.40;55.30;;;;;;5019138;28;20177;-87
2023/05/13 09:07:17;;;;;;;16.05;14.45;;;19.70;55.60;;;;;;5019451;28;20264;-86
2023/05/13 09:09:43;;;;;;;21.27;19.25;;;19.70;53.30;;;;;;5018640;28;20291;-87
2023/05/13 09:12:09;;;;;;;21.38;19.25;;;19.70;55.00;;;;;;5019890;28;20193;-86
2023/05/13 09:14:36;;;;;;;20.73;18.98;;;19.90;53.00;;;;;;5019955;28;20269;-87
2023/05/13 09:17:02;;;;;;;22.00;19.80;;;20.10;54.50;;;;;;5018362;28;20774;-87
2023/05/13 09:19:28;;;;;;;23.05;20.67;;;20.20;52.20;;;;;;5018478;28;20217;-87
2023/05/13 09:21:53;;;;;;;22.23;20.38;;;20.20;51.00;;;;;;5020523;28;20221;-87
2023/05/13 09:24:22;;;;;;;22.38;20.67;;;20.20;50.30;;;;;;5018037;28;20260;-87
2023/05/13 09:26:49;;;;;;;22.25;20.33;;;20.20;48.50;;;;;;5017752;28;20174;-85
2023/05/13 09:29:20;;;;;;;22.67;20.92;;;20.30;50.60;;;;;;5019729;28;20189;-86
2023/05/13 09:31:48;;;;;;;21.67;20.20;;;20.40;50.70;;;;;;5017177;28;20220;-85
2023/05/13 09:34:23;;;;;;;23.02;21.30;;;20.40;49.80;;;;;;5019126;28;20640;-87
2023/05/13 09:36:57;;;;;;;16.02;14.57;;;20.40;48.90;;;;;;5022187;28;20338;-86
2023/05/13 09:39:23;;;;;;;16.95;14.90;;;20.40;49.40;;;;;;5020250;28;20173;-87
2023/05/13 09:41:48;;;;;;;16.23;14.60;;;20.50;51.20;;;;;;5020061;28;20193;-87
2023/05/13 09:44:14;;;;;;;16.60;14.98;;;20.60;48.90;;;;;;5021663;28;20551;-87
2023/05/13 09:46:41;;;;;;;15.93;14.65;;;20.80;48.60;;;;;;5020940;28;20185;-86
2023/05/13 09:49:09;;;;;;;15.60;14.32;;;20.80;47.90;;;;;;5019813;28;20721;-87
2023/05/13 09:51:34;;;;;;;17.05;15.55;;;20.90;46.50;;;;;;5018694;28;20561;-86
2023/05/13 09:54:05;;;;;;;19.23;14.90;;;21.00;46.50;;;;;;5021482;28;20265;-87
2023/05/13 09:56:33;;;;;;;16.85;15.20;;;20.90;48.60;;;;;;5022793;28;20196;-87
2023/05/13 09:58:59;;;;;;;17.35;15.82;;;21.10;46.70;;;;;;5020399;28;20228;-87
2023/05/13 10:01:27;;;;;;;17.02;15.38;;;21.20;46.60;;;;;;5019876;28;20671;-87
2023/05/13 10:03:54;;;;;;;17.10;15.60;;;21.20;45.90;;;;;;5020486;28;20307;-88
2023/05/13 10:06:22;;;;;;;16.25;15.05;;;21.40;45.70;;;;;;5020113;28;20173;-87
2023/05/13 10:08:52;;;;;;;16.85;15.38;;;21.40;44.60;;;;;;5016450;28;20192;-87
2023/05/13 10:11:18;;;;;;;16.98;15.50;;;21.40;41.90;;;;;;5014410;28;20268;-87
2023/05/13 10:13:54;;;;;;;20.83;19.02;;;21.50;45.30;;;;;;5017623;28;20266;-88
2023/05/13 10:16:21;;;;;;;24.13;22.13;;;21.70;47.30;;;;;;5016803;28;20246;-87
2023/05/13 10:18:47;;;;;;;22.65;20.95;;;21.50;43.50;;;;;;5017272;28;20181;-87
2023/05/13 10:21:13;;;;;;;23.35;21.15;;;21.50;43.40;;;;;;5019275;28;20561;-87
2023/05/13 10:23:39;;;;;;;22.48;20.60;;;21.60;44.40;;;;;;5018221;28;20170;-87
2023/05/13 10:26:06;;;;;;;22.35;20.75;;;21.60;43.50;;;;;;5017249;28;20177;-87
2023/05/13 10:28:33;;;;;;;25.58;20.95;;;21.70;45.30;;;;;;5021372;28;20188;-86
2023/05/13 10:30:58;;;;;;;22.48;20.73;;;21.90;45.10;;;;;;5021120;28;20190;-87
2023/05/13 10:33:26;;;;;;;22.55;20.55;;;21.90;46.50;;;;;;5018115;28;20666;-87
2023/05/13 10:36:24;;;;;;;22.10;20.23;;;22.20;45.50;;;;;;5018151;28;20688;-87
2023/05/13 10:39:05;;;;;;;22.95;21.13;;;22.20;45.60;;;;;;5019913;28;20173;-87
2023/05/13 10:42:02;;;;;;;16.85;15.13;;;22.20;44.20;;;;;;5023632;28;20189;-86
2023/05/13 10:44:28;;;;;;;17.17;15.50;;;22.10;43.50;;;;;;5023089;28;20162;-87
2023/05/13 10:46:55;;;;;;;17.65;15.95;;;22.10;43.60;;;;;;5020355;28;20551;-87
2023/05/13 10:49:23;;;;;;;16.55;15.35;;;22.20;45.70;;;;;;5020603;28;20634;-88
2023/05/13 10:51:49;;;;;;;17.73;15.80;;;22.50;46.70;;;;;;5022564;28;20247;-87
2023/05/13 10:54:19;;;;;;;17.95;15.75;;;22.40;44.10;;;;;;5021132;28;20181;-87
2023/05/13 10:56:46;;;;;;;17.52;16.05;;;22.20;42.20;;;;;;5023177;28;20659;-87
2023/05/13 10:59:11;;;;;;;17.10;15.75;;;22.20;44.30;;;;;;5021254;28;20181;-87
2023/05/13 11:01:45;;;;;;;17.10;15.70;;;22.30;44.10;;;;;;5023131;28;20235;-87
2023/05/13 11:04:16;;;;;;;17.40;15.30;;;22.20;41.60;;;;;;5021199;28;20565;-87
2023/05/13 11:06:47;;;;;;;17.20;15.57;;;22.30;43.90;;;;;;5023211;28;20237;-87
2023/05/13 11:09:19;;;;;;;17.17;15.82;;;22.30;41.10;;;;;;5022785;28;20227;-88
2023/05/13 11:11:58;;;;;;;16.98;15.50;;;22.20;43.40;;;;;;5023585;28;20719;-87
2023/05/13 11:14:30;;;;;;;17.02;15.73;;;22.20;43.50;;;;;;5021704;28;20312;-86
2023/05/13 11:17:03;;;;;;;22.55;20.52;;;22.40;43.80;;;;;;5021134;28;20679;-87
2023/05/13 11:19:30;;;;;;;24.00;21.55;;;22.50;44.40;;;;;;5020933;28;20184;-86
2023/05/13 11:22:17;;;;;;;22.48;20.77;;;22.50;44.00;;;;;;5021889;28;20785;-87
2023/05/13 11:25:07;;;;;;;22.83;21.23;;;22.40;42.50;;;;;;5021469;28;20562;-88
2023/05/13 11:27:41;;;;;;;22.95;21.13;;;22.00;45.50;;;;;;5022302;28;20173;-87
2023/05/13 11:30:22;;;;;;;24.25;20.88;;;22.30;43.20;;;;;;5023460;28;20184;-88
2023/05/13 11:32:57;;;;;;;23.00;21.00;;;22.60;42.00;;;;;;5023836;28;20209;-86
2023/05/13 11:35:28;;;;;;;21.45;19.83;;;22.70;41.20;;;;;;5022576;28;20207;-87
2023/05/13 11:37:55;;;;;;;23.17;20.48;;;22.80;44.00;;;;;;5022156;28;20181;-86
2023/05/13 11:40:35;;;;;;;22.38;20.55;;;23.00;42.60;;;;;;5021632;28;20185;-86
2023/05/13 11:43:01;;;;;;;17.17;15.32;;;23.00;42.00;;;;;;5023762;28;20145;-86
2023/05/13 11:45:29;;;;;;;17.42;15.40;;;22.70;41.10;;;;;;5021549;28;20271;-87
2023/05/13 11:47:57;;;;;;;26.38;16.33;;;22.90;43.50;;;;;;5022581;28;20178;-87
2023/05/13 11:50:26;;;;;;;16.13;14.80;;;22.80;38.40;;;;;;5021225;28;20287;-88
2023/05/13 11:52:54;;;;;;;17.27;15.90;;;22.70;42.10;;;;;;5022841;28;20169;-87
2023/05/13 11:55:36;;;;;;;17.03;15.50;;;22.70;42.70;;;;;;5024429;28;20552;-86
2023/05/13 11:58:02;;;;;;;17.38;15.65;;;22.80;44.90;;;;;;5024325;28;20170;-87
2023/05/13 12:00:33;;;;;;;16.15;15.00;;;22.80;42.00;;;;;;5023838;28;20201;-87
2023/05/13 12:03:00;;;;;;;16.98;15.20;;;22.40;40.60;;;;;;5022724;28;20173;-86
2023/05/13 12:05:25;;;;;;;16.75;15.40;;;22.10;43.60;;;;;;5025477;28;20227;-87
2023/05/13 12:07:54;;;;;;;16.50;15.18;;;21.70;44.50;;;;;;5024264;28;20240;-87
2023/05/13 12:10:20;;;;;;;16.95;15.70;;;21.40;44.60;;;;;;5023499;28;20730;-87
2023/05/13 12:12:46;;;;;;;15.95;14.70;;;21.30;45.80;;;;;;5024786;28;20188;-87
2023/05/13 12:15:15;;;;;;;17.02;15.45;;;21.20;44.00;;;;;;5022854;28;20181;-87
2023/05/13 12:17:41;;;;;;;17.23;15.20;;;21.20;47.20;;;;;;5025265;28;20231;-86
2023/05/13 12:20:11;;;;;;;16.90;15.50;;;21.10;48.20;;;;;;5025893;28;20179;-87
2023/05/13 12:22:43;;;;;;;24.35;22.20;;;20.90;45.50;;;;;;5022571;28;20170;-87
2023/05/13 12:25:33;;;;;;;24.17;22.08;;;20.90;46.00;;;;;;5021328;28;20260;-87
2023/05/13 12:28:19;;;;;;;24.45;22.42;;;21.50;42.70;;;;;;5023293;28;20208;-87
2023/05/13 12:31:04;;;;;;;23.45;21.48;;;22.10;40.40;;;;;;5022922;28;20295;-87